Time;durP1;ratioP1;P1;durP2;ratioP2;P2;SDS_P1;SDS_P2;PMS_P1;PMS_P2;Temp;Humidity;BMP_temperature;BMP_pressure;BME280_temperature;BME280_humidity;BME280_pressure;Samples;Min_cycle;Max_cycle;Signal;HPM_P1;HPM_P2
2022/05/22 00:01:36;;;;;;;9.23;3.35;;;;;;;;;;5030145;28;20037;-63
2022/05/22 00:04:02;;;;;;;8.35;3.20;;;;;;;;;;5039474;28;20044;-63
2022/05/22 00:06:29;;;;;;;5.65;3.50;;;;;;;;;;5032315;28;20041;-63
2022/05/22 00:08:55;;;;;;;6.07;3.15;;;;;;;;;;5031849;28;20047;-63
2022/05/22 00:11:22;;;;;;;6.20;3.20;;;;;;;;;;5033709;28;20124;-63
2022/05/22 00:13:48;;;;;;;7.03;3.30;;;;;;;;;;5042271;28;20041;-63
2022/05/22 00:18:59;;;;;;;6.57;3.20;;;;;;;;;;5011280;22;1023019;-60
2022/05/22 00:21:25;;;;;;;7.30;3.58;;;;;;;;;;4988704;28;20420;-60
2022/05/22 00:23:51;;;;;;;4.72;2.97;;;;;;;;;;4991613;28;20145;-60
2022/05/22 00:26:17;;;;;;;5.65;2.92;;;;;;;;;;4992785;28;20034;-60
2022/05/22 00:28:43;;;;;;;5.70;3.15;;;;;;;;;;4991198;28;20057;-61
2022/05/22 00:31:09;;;;;;;6.63;3.53;;;;;;;;;;4976884;28;20035;-60
2022/05/22 00:33:35;;;;;;;7.20;3.63;;;;;;;;;;4974292;28;20512;-60
2022/05/22 00:36:01;;;;;;;8.32;3.33;;;;;;;;;;4973126;28;20039;-60
2022/05/22 00:38:27;;;;;;;8.70;3.33;;;;;;;;;;4973698;28;20034;-60
2022/05/22 00:40:53;;;;;;;8.55;3.80;;;;;;;;;;4981881;28;20038;-60
2022/05/22 00:43:30;;;;;;;7.40;3.42;;;;;;;;;;4972797;28;20038;-60
2022/05/22 00:45:57;;;;;;;7.03;3.60;;;;;;;;;;4956434;28;20054;-60
2022/05/22 00:48:24;;;;;;;8.00;3.80;;;;;;;;;;4973460;28;20050;-60
2022/05/22 00:50:50;;;;;;;7.25;3.60;;;;;;;;;;4957281;28;20492;-60
2022/05/22 00:53:16;;;;;;;5.90;3.25;;;;;;;;;;4972812;28;20042;-60
2022/05/22 00:55:42;;;;;;;5.95;3.40;;;;;;;;;;4959488;28;20042;-60
2022/05/22 00:58:12;;;;;;;7.22;3.33;;;;;;;;;;4969619;28;20035;-60
2022/05/22 01:00:38;;;;;;;8.07;3.53;;;;;;;;;;4977245;28;20074;-60
2022/05/22 01:03:28;;;;;;;9.73;3.47;;;;;;;;;;4974521;28;20456;-60
2022/05/22 01:05:55;;;;;;;7.80;3.80;;;;;;;;;;4974123;28;20515;-60
2022/05/22 01:08:22;;;;;;;4.72;3.35;;;;;;;;;;4973478;28;20097;-60
2022/05/22 01:10:49;;;;;;;7.32;3.80;;;;;;;;;;4972417;28;20042;-60
2022/05/22 01:13:17;;;;;;;4.90;3.30;;;;;;;;;;4976966;28;20038;-60
2022/05/22 01:15:43;;;;;;;5.18;3.30;;;;;;;;;;4977037;28;20035;-60
2022/05/22 01:18:10;;;;;;;4.00;3.00;;;;;;;;;;4966922;28;20035;-60
2022/05/22 01:20:36;;;;;;;6.13;2.67;;;;;;;;;;4969526;28;20035;-60
2022/05/22 01:23:02;;;;;;;5.90;2.90;;;;;;;;;;4951740;28;20550;-61
2022/05/22 01:25:28;;;;;;;4.75;2.67;;;;;;;;;;4971276;28;20035;-60
2022/05/22 01:27:54;;;;;;;3.63;2.58;;;;;;;;;;4971185;28;20041;-60
2022/05/22 01:30:22;;;;;;;7.22;3.05;;;;;;;;;;4967859;28;20138;-61
2022/05/22 01:32:49;;;;;;;4.00;2.50;;;;;;;;;;4972053;28;20715;-61
2022/05/22 01:35:17;;;;;;;3.20;2.53;;;;;;;;;;4970218;28;20132;-61
2022/05/22 01:37:43;;;;;;;6.60;2.90;;;;;;;;;;4973209;28;20042;-61
2022/05/22 01:40:10;;;;;;;6.25;3.00;;;;;;;;;;4974728;28;20045;-61
2022/05/22 01:42:36;;;;;;;6.28;2.47;;;;;;;;;;4971877;28;20039;-61
2022/05/22 01:45:04;;;;;;;4.30;2.45;;;;;;;;;;4937650;28;20508;-61
2022/05/22 01:47:32;;;;;;;4.25;2.50;;;;;;;;;;4972640;28;20038;-60
2022/05/22 01:49:58;;;;;;;3.17;2.25;;;;;;;;;;4981726;28;20125;-60
2022/05/22 01:52:24;;;;;;;5.10;3.08;;;;;;;;;;4970559;28;20053;-61
2022/05/22 01:54:50;;;;;;;4.05;2.47;;;;;;;;;;4969771;28;20039;-60
2022/05/22 01:57:16;;;;;;;2.60;2.35;;;;;;;;;;4965204;28;20392;-61
2022/05/22 01:59:42;;;;;;;1.65;1.48;;;;;;;;;;4969715;28;20077;-61
2022/05/22 02:02:08;;;;;;;2.70;1.65;;;;;;;;;;4967228;28;20043;-61
2022/05/22 02:04:34;;;;;;;3.30;1.90;;;;;;;;;;4955621;28;20054;-60
2022/05/22 02:09:45;;;;;;;3.15;1.52;;;;;;;;;;4971289;28;20400;-60
2022/05/22 02:12:11;;;;;;;2.67;1.63;;;;;;;;;;4973509;28;20045;-60
2022/05/22 02:14:37;;;;;;;2.20;1.42;;;;;;;;;;4971267;28;20431;-60
2022/05/22 02:17:03;;;;;;;4.47;1.70;;;;;;;;;;4970858;28;20039;-61
2022/05/22 02:19:29;;;;;;;3.88;2.08;;;;;;;;;;4972085;28;20039;-60
2022/05/22 02:21:55;;;;;;;5.40;2.00;;;;;;;;;;4954955;28;20089;-61
2022/05/22 02:24:21;;;;;;;2.28;2.03;;;;;;;;;;4972118;28;20455;-60
2022/05/22 02:26:47;;;;;;;3.38;2.00;;;;;;;;;;4970297;28;20027;-60
2022/05/22 02:29:13;;;;;;;3.33;2.38;;;;;;;;;;4972061;28;20035;-61
2022/05/22 02:31:38;;;;;;;5.78;3.15;;;;;;;;;;4972099;28;20042;-60
2022/05/22 02:34:04;;;;;;;5.00;3.20;;;;;;;;;;4969017;28;20046;-60
2022/05/22 02:36:30;;;;;;;6.72;3.13;;;;;;;;;;4970085;28;20042;-61
2022/05/22 02:38:56;;;;;;;2.63;2.42;;;;;;;;;;4981886;28;20042;-61
2022/05/22 02:41:25;;;;;;;2.38;1.80;;;;;;;;;;4974812;28;20039;-60
2022/05/22 02:43:51;;;;;;;3.13;2.03;;;;;;;;;;4970858;28;20039;-60
2022/05/22 02:46:18;;;;;;;1.65;1.17;;;;;;;;;;4971000;28;20031;-60
2022/05/22 02:48:44;;;;;;;2.28;1.70;;;;;;;;;;4972104;28;20073;-60
2022/05/22 02:51:19;;;;;;;2.45;1.60;;;;;;;;;;4976145;28;20082;-60
2022/05/22 02:53:45;;;;;;;1.70;1.60;;;;;;;;;;4966551;28;20042;-60
2022/05/22 02:56:15;;;;;;;3.58;1.90;;;;;;;;;;4980546;28;20027;-60
2022/05/22 02:58:41;;;;;;;4.40;2.40;;;;;;;;;;4970770;28;20125;-60
2022/05/22 03:01:07;;;;;;;3.00;2.70;;;;;;;;;;4964736;28;20118;-60
2022/05/22 03:03:34;;;;;;;10.02;2.40;;;;;;;;;;4972014;28;20061;-60
2022/05/22 03:08:45;;;;;;;4.07;2.92;;;;;;;;;;4968487;28;20042;-61
2022/05/22 03:11:11;;;;;;;3.00;2.10;;;;;;;;;;4969810;28;20125;-60
2022/05/22 03:13:37;;;;;;;3.72;1.98;;;;;;;;;;4953600;28;20070;-61
2022/05/22 03:16:03;;;;;;;3.45;2.38;;;;;;;;;;4949155;28;20051;-61
2022/05/22 03:18:30;;;;;;;3.55;2.33;;;;;;;;;;4970491;28;20050;-60
2022/05/22 03:20:56;;;;;;;4.82;2.53;;;;;;;;;;4968491;28;20113;-60
2022/05/22 03:23:22;;;;;;;4.43;2.50;;;;;;;;;;4971840;28;20411;-61
2022/05/22 03:25:48;;;;;;;3.50;2.45;;;;;;;;;;4978670;28;20034;-60
2022/05/22 03:28:15;;;;;;;3.15;2.85;;;;;;;;;;4970944;28;20039;-60
2022/05/22 03:30:41;;;;;;;3.45;2.95;;;;;;;;;;4969539;28;20061;-61
2022/05/22 03:33:07;;;;;;;5.50;3.55;;;;;;;;;;4957672;28;20046;-60
2022/05/22 03:35:33;;;;;;;5.95;3.65;;;;;;;;;;4967908;28;20086;-60
2022/05/22 03:37:59;;;;;;;6.25;3.58;;;;;;;;;;4969759;28;20476;-60
2022/05/22 03:40:25;;;;;;;6.10;3.60;;;;;;;;;;4974379;28;20043;-61
2022/05/22 03:42:51;;;;;;;7.03;3.40;;;;;;;;;;4976262;28;20576;-61
2022/05/22 03:45:17;;;;;;;4.63;2.92;;;;;;;;;;4985653;28;20481;-60
2022/05/22 03:47:43;;;;;;;4.75;2.90;;;;;;;;;;4970843;28;20038;-61
2022/05/22 03:50:11;;;;;;;4.50;3.00;;;;;;;;;;4974183;28;20111;-61
2022/05/22 03:52:39;;;;;;;3.78;3.08;;;;;;;;;;4982110;28;20046;-61
2022/05/22 03:55:07;;;;;;;3.72;2.63;;;;;;;;;;4964081;28;20121;-61
2022/05/22 03:57:33;;;;;;;4.28;2.58;;;;;;;;;;4973101;28;20057;-61
2022/05/22 03:59:59;;;;;;;3.97;2.65;;;;;;;;;;4973414;28;20452;-61
2022/05/22 04:02:25;;;;;;;4.20;2.97;;;;;;;;;;4972213;28;20101;-61
2022/05/22 04:04:51;;;;;;;3.40;2.28;;;;;;;;;;4973141;28;20042;-61
2022/05/22 04:07:17;;;;;;;2.45;1.80;;;;;;;;;;4957126;28;20773;-60
2022/05/22 04:09:43;;;;;;;3.28;2.38;;;;;;;;;;4975306;28;20133;-61
2022/05/22 04:12:11;;;;;;;2.80;2.20;;;;;;;;;;4973206;28;20415;-61
2022/05/22 04:14:37;;;;;;;2.30;1.98;;;;;;;;;;4972710;28;20483;-61
2022/05/22 04:17:03;;;;;;;3.45;2.35;;;;;;;;;;4953328;28;20042;-60
2022/05/22 04:19:31;;;;;;;2.38;2.17;;;;;;;;;;4974271;28;20043;-61
2022/05/22 04:21:57;;;;;;;2.35;1.75;;;;;;;;;;4974092;28;20116;-60
2022/05/22 04:27:08;;;;;;;4.22;2.97;;;;;;;;;;4973931;28;20035;-61
2022/05/22 04:29:35;;;;;;;2.83;2.60;;;;;;;;;;4972697;28;20101;-61
2022/05/22 04:32:01;;;;;;;3.75;2.97;;;;;;;;;;4974496;28;20507;-60
2022/05/22 04:34:27;;;;;;;3.30;2.97;;;;;;;;;;4954614;28;20405;-61
2022/05/22 04:36:53;;;;;;;3.63;2.95;;;;;;;;;;4975005;28;20408;-61
2022/05/22 04:39:19;;;;;;;3.28;2.95;;;;;;;;;;4981621;28;20460;-60
2022/05/22 04:41:45;;;;;;;3.30;3.00;;;;;;;;;;4972508;28;20400;-60
2022/05/22 04:44:11;;;;;;;3.45;3.15;;;;;;;;;;4974017;28;20039;-60
2022/05/22 04:46:37;;;;;;;5.25;3.33;;;;;;;;;;4973771;28;20042;-60
2022/05/22 04:49:03;;;;;;;3.30;2.83;;;;;;;;;;4971518;28;20038;-60
2022/05/22 04:51:29;;;;;;;3.85;3.05;;;;;;;;;;4956240;28;20093;-60
2022/05/22 04:53:55;;;;;;;4.20;3.40;;;;;;;;;;4972198;28;20496;-60
2022/05/22 04:56:21;;;;;;;5.40;3.22;;;;;;;;;;4971980;28;20051;-61
2022/05/22 04:58:47;;;;;;;3.35;3.05;;;;;;;;;;4972237;28;20035;-61
2022/05/22 05:01:13;;;;;;;4.05;3.65;;;;;;;;;;4972923;28;20493;-60
2022/05/22 05:03:40;;;;;;;4.57;3.65;;;;;;;;;;4960234;28;20122;-60
2022/05/22 05:06:06;;;;;;;5.30;4.43;;;;;;;;;;4974403;28;20097;-60
2022/05/22 05:08:32;;;;;;;5.55;4.13;;;;;;;;;;4973629;28;20070;-60
2022/05/22 05:10:59;;;;;;;9.95;4.97;;;;;;;;;;4970893;28;20097;-60
2022/05/22 05:13:25;;;;;;;7.85;5.45;;;;;;;;;;4971622;28;20563;-60
2022/05/22 05:16:05;;;;;;;8.90;5.72;;;;;;;;;;4966080;28;20049;-61
2022/05/22 05:18:31;;;;;;;7.75;6.00;;;;;;;;;;4969591;28;20369;-60
2022/05/22 05:20:59;;;;;;;7.75;6.03;;;;;;;;;;4959052;28;20046;-60
2022/05/22 05:23:25;;;;;;;7.82;5.38;;;;;;;;;;4970123;28;20038;-60
2022/05/22 05:25:51;;;;;;;7.75;5.90;;;;;;;;;;4971276;28;20035;-61
2022/05/22 05:28:17;;;;;;;10.80;5.70;;;;;;;;;;4968614;28;20039;-60
2022/05/22 05:30:43;;;;;;;9.13;5.75;;;;;;;;;;4972021;28;20038;-60
2022/05/22 05:33:09;;;;;;;9.55;5.80;;;;;;;;;;4971441;28;20039;-60
2022/05/22 05:35:36;;;;;;;8.05;5.65;;;;;;;;;;4969952;28;20043;-60
2022/05/22 05:38:01;;;;;;;11.77;6.15;;;;;;;;;;4967163;28;20081;-61
2022/05/22 05:40:27;;;;;;;12.07;6.88;;;;;;;;;;4970459;28;20047;-61
2022/05/22 05:42:54;;;;;;;14.27;7.25;;;;;;;;;;4968423;28;20504;-62
2022/05/22 05:45:20;;;;;;;10.95;7.05;;;;;;;;;;4969110;28;20051;-61
2022/05/22 05:47:47;;;;;;;12.63;7.05;;;;;;;;;;4969522;28;20030;-61
2022/05/22 05:50:13;;;;;;;13.55;7.93;;;;;;;;;;4967205;28;20053;-61
2022/05/22 05:52:39;;;;;;;11.45;6.60;;;;;;;;;;4947675;28;21271;-61
2022/05/22 05:55:06;;;;;;;10.35;6.93;;;;;;;;;;4967871;28;20105;-61
2022/05/22 05:57:32;;;;;;;17.88;7.35;;;;;;;;;;4966127;28;20109;-61
2022/05/22 05:59:58;;;;;;;16.70;7.53;;;;;;;;;;4968430;28;20492;-61
2022/05/22 06:02:24;;;;;;;12.82;7.32;;;;;;;;;;4954288;28;20130;-60
2022/05/22 06:04:50;;;;;;;16.95;7.10;;;;;;;;;;4966608;28;20031;-61
2022/05/22 06:07:16;;;;;;;14.82;7.07;;;;;;;;;;4974101;28;20034;-61
2022/05/22 06:09:42;;;;;;;16.98;6.72;;;;;;;;;;4970101;28;20041;-61
2022/05/22 06:12:08;;;;;;;10.25;5.70;;;;;;;;;;4970595;28;20043;-62
2022/05/22 06:14:34;;;;;;;14.18;6.10;;;;;;;;;;4969037;28;20403;-62
2022/05/22 06:17:00;;;;;;;14.88;6.20;;;;;;;;;;4967380;28;20049;-62
2022/05/22 06:22:14;;;;;;;17.50;6.22;;;;;;;;;;4989962;28;20129;-64
2022/05/22 06:24:39;;;;;;;12.20;5.43;;;;;;;;;;4988787;28;20509;-64
2022/05/22 06:27:05;;;;;;;16.23;5.32;;;;;;;;;;4972194;28;20046;-63
2022/05/22 06:29:31;;;;;;;13.63;5.82;;;;;;;;;;4988862;28;20050;-63
2022/05/22 06:31:57;;;;;;;17.50;5.72;;;;;;;;;;4989234;28;20041;-64
2022/05/22 06:34:24;;;;;;;11.93;5.15;;;;;;;;;;4988365;28;20100;-64
2022/05/22 06:36:51;;;;;;;11.80;5.55;;;;;;;;;;4989014;28;20070;-64
2022/05/22 06:42:02;;;;;;;12.48;5.30;;;;;;;;;;4986365;28;20038;-63
2022/05/22 06:44:28;;;;;;;15.95;5.97;;;;;;;;;;4990648;28;20034;-64
2022/05/22 06:46:54;;;;;;;14.52;5.53;;;;;;;;;;4987531;28;20575;-64
2022/05/22 06:49:20;;;;;;;15.95;5.05;;;;;;;;;;4990670;28;20053;-64
2022/05/22 06:51:50;;;;;;;13.63;4.85;;;;;;;;;;4987906;28;20089;-64
2022/05/22 06:54:16;;;;;;;10.50;4.87;;;;;;;;;;4987924;28;20137;-64
2022/05/22 06:56:43;;;;;;;15.45;5.60;;;;;;;;;;4988666;28;20072;-64
2022/05/22 06:59:09;;;;;;;16.45;5.03;;;;;;;;;;4992792;28;20058;-64
2022/05/22 07:01:35;;;;;;;12.90;4.72;;;;;;;;;;5003791;28;20069;-64
2022/05/22 07:04:01;;;;;;;13.98;4.80;;;;;;;;;;4988213;28;20050;-63
2022/05/22 07:06:27;;;;;;;10.75;4.93;;;;;;;;;;4990327;28;20047;-64
2022/05/22 07:08:53;;;;;;;12.65;4.75;;;;;;;;;;4971595;28;20136;-63
2022/05/22 07:14:03;;;;;;;13.15;4.50;;;;;;;;;;4991824;28;20042;-63
2022/05/22 07:16:29;;;;;;;10.23;4.20;;;;;;;;;;4993462;28;20034;-64
2022/05/22 07:18:55;;;;;;;9.57;3.95;;;;;;;;;;4991177;28;20034;-63
2022/05/22 07:21:21;;;;;;;10.63;3.95;;;;;;;;;;4992383;28;20567;-64
2022/05/22 07:23:47;;;;;;;12.52;4.80;;;;;;;;;;4993354;28;20056;-64
2022/05/22 07:26:14;;;;;;;13.48;4.50;;;;;;;;;;4993695;28;20066;-64
2022/05/22 07:28:40;;;;;;;11.05;4.18;;;;;;;;;;4997280;28;20487;-63
2022/05/22 07:31:06;;;;;;;11.25;4.25;;;;;;;;;;4995840;28;20050;-64
2022/05/22 07:33:32;;;;;;;13.25;3.70;;;;;;;;;;4996362;28;20602;-63
2022/05/22 07:35:58;;;;;;;12.82;4.47;;;;;;;;;;4994393;28;20034;-63
2022/05/22 07:38:25;;;;;;;14.98;4.70;;;;;;;;;;4991342;28;20050;-64
2022/05/22 07:40:52;;;;;;;10.18;4.38;;;;;;;;;;4990984;28;20565;-64
2022/05/22 07:43:18;;;;;;;11.43;4.55;;;;;;;;;;4993596;28;20057;-63
2022/05/22 07:45:44;;;;;;;12.07;3.97;;;;;;;;;;4991732;28;20120;-63
2022/05/22 07:48:10;;;;;;;11.90;4.60;;;;;;;;;;5006628;28;20060;-64
2022/05/22 07:50:36;;;;;;;8.95;3.75;;;;;;;;;;4992296;28;20057;-63
2022/05/22 07:53:02;;;;;;;10.10;4.20;;;;;;;;;;4991157;28;20042;-64
2022/05/22 07:55:28;;;;;;;9.88;3.95;;;;;;;;;;4991133;28;20444;-63
2022/05/22 07:57:54;;;;;;;8.77;3.30;;;;;;;;;;4990502;28;20042;-63
2022/05/22 08:00:21;;;;;;;9.98;3.22;;;;;;;;;;4993993;28;20153;-64
2022/05/22 08:02:48;;;;;;;10.15;3.63;;;;;;;;;;4991759;28;20414;-63
2022/05/22 08:05:15;;;;;;;10.70;3.90;;;;;;;;;;4990976;28;20042;-64
2022/05/22 08:07:41;;;;;;;12.07;4.22;;;;;;;;;;4993430;28;20041;-64
2022/05/22 08:10:07;;;;;;;12.77;4.25;;;;;;;;;;4998950;28;20080;-64
2022/05/22 08:12:41;;;;;;;12.95;3.85;;;;;;;;;;4976856;28;20125;-64
2022/05/22 08:15:08;;;;;;;10.15;3.55;;;;;;;;;;4987628;28;20455;-64
2022/05/22 08:17:36;;;;;;;11.85;3.63;;;;;;;;;;4989227;28;20038;-64
2022/05/22 08:20:09;;;;;;;8.20;3.22;;;;;;;;;;4993287;28;20065;-64
2022/05/22 08:22:35;;;;;;;6.90;3.00;;;;;;;;;;4992245;28;20033;-64
2022/05/22 08:25:02;;;;;;;11.20;3.28;;;;;;;;;;4992345;28;20407;-63
2022/05/22 08:27:28;;;;;;;8.57;2.40;;;;;;;;;;4990231;28;20042;-64
2022/05/22 08:29:55;;;;;;;8.52;2.53;;;;;;;;;;5014088;28;20787;-64
2022/05/22 08:32:21;;;;;;;6.10;2.20;;;;;;;;;;4999586;28;20050;-64
2022/05/22 08:34:47;;;;;;;8.32;2.30;;;;;;;;;;4999883;28;20038;-64
2022/05/22 08:37:13;;;;;;;9.23;2.50;;;;;;;;;;4998629;28;20084;-63
2022/05/22 08:39:39;;;;;;;9.95;3.22;;;;;;;;;;5011225;28;20487;-64
2022/05/22 08:42:09;;;;;;;9.77;2.95;;;;;;;;;;4995853;28;20070;-64
2022/05/22 08:44:35;;;;;;;8.45;2.50;;;;;;;;;;4992821;28;20125;-64
2022/05/22 08:47:11;;;;;;;9.65;2.47;;;;;;;;;;4993077;28;20042;-64
2022/05/22 08:49:40;;;;;;;10.00;2.80;;;;;;;;;;4994293;28;20045;-64
2022/05/22 08:52:17;;;;;;;9.40;3.03;;;;;;;;;;4992226;28;20038;-64
2022/05/22 08:54:46;;;;;;;8.80;2.88;;;;;;;;;;4992475;28;20443;-64
2022/05/22 09:00:20;;;;;;;10.82;3.05;;;;;;;;;;4992783;28;20043;-64
2022/05/22 09:02:52;;;;;;;9.65;2.60;;;;;;;;;;4996920;28;20049;-64
2022/05/22 09:05:22;;;;;;;7.25;2.40;;;;;;;;;;4995933;28;20042;-64
2022/05/22 09:07:53;;;;;;;11.32;2.78;;;;;;;;;;4991068;28;20491;-65
2022/05/22 09:10:38;;;;;;;7.63;2.67;;;;;;;;;;4986332;28;20046;-65
2022/05/22 09:13:18;;;;;;;10.45;2.80;;;;;;;;;;4990273;28;20064;-64
2022/05/22 09:15:49;;;;;;;9.68;2.28;;;;;;;;;;4990760;28;20049;-65
2022/05/22 09:18:27;;;;;;;11.40;2.50;;;;;;;;;;4992881;28;20046;-64
2022/05/22 09:20:55;;;;;;;7.28;2.22;;;;;;;;;;4992415;28;20417;-64
2022/05/22 09:23:34;;;;;;;6.95;2.30;;;;;;;;;;4992657;28;20049;-65
2022/05/22 09:26:00;;;;;;;8.48;2.65;;;;;;;;;;4985265;28;20129;-64
2022/05/22 09:28:55;;;;;;;5.45;2.25;;;;;;;;;;4993860;28;20065;-64
2022/05/22 09:31:27;;;;;;;6.80;2.15;;;;;;;;;;4922481;28;20119;-64
2022/05/22 09:34:02;;;;;;;9.40;2.38;;;;;;;;;;4988564;28;20070;-64
2022/05/22 09:36:37;;;;;;;8.57;2.53;;;;;;;;;;4993350;28;20076;-64
2022/05/22 09:39:03;;;;;;;12.57;2.70;;;;;;;;;;4991543;28;20050;-64
2022/05/22 09:41:34;;;;;;;6.95;2.17;;;;;;;;;;4990241;28;20052;-64
2022/05/22 09:44:21;;;;;;;7.72;2.08;;;;;;;;;;4991737;28;20516;-64
2022/05/22 09:47:05;;;;;;;6.93;2.10;;;;;;;;;;4975959;28;20038;-64
2022/05/22 09:49:40;;;;;;;6.30;2.08;;;;;;;;;;4990649;28;20121;-64
2022/05/22 09:52:21;;;;;;;7.40;2.08;;;;;;;;;;4984922;28;20044;-64
2022/05/22 09:55:13;;;;;;;5.68;2.05;;;;;;;;;;5147490;27;20393;-63
2022/05/22 09:57:39;;;;;;;7.82;2.03;;;;;;;;;;5129987;27;20046;-64
2022/05/22 10:00:16;;;;;;;4.72;1.88;;;;;;;;;;5129533;27;20036;-64
2022/05/22 10:02:44;;;;;;;5.22;1.90;;;;;;;;;;5130013;27;20046;-64
2022/05/22 10:05:25;;;;;;;7.95;1.80;;;;;;;;;;5128058;27;20488;-64
2022/05/22 10:07:51;;;;;;;8.57;2.17;;;;;;;;;;5130143;27;20117;-64
2022/05/22 10:10:23;;;;;;;8.32;1.98;;;;;;;;;;5129790;27;20078;-64
2022/05/22 10:12:57;;;;;;;9.90;2.22;;;;;;;;;;5128309;27;20043;-64
2022/05/22 10:15:38;;;;;;;6.43;2.00;;;;;;;;;;5129363;27;20035;-64
2022/05/22 10:18:04;;;;;;;8.07;2.00;;;;;;;;;;5130052;27;20043;-64
2022/05/22 10:20:48;;;;;;;5.35;1.92;;;;;;;;;;5129645;27;20043;-64
2022/05/22 10:23:14;;;;;;;7.85;1.98;;;;;;;;;;5128704;27;20035;-64
2022/05/22 10:25:56;;;;;;;8.30;2.20;;;;;;;;;;5129554;27;20051;-64
2022/05/22 10:28:23;;;;;;;4.70;1.60;;;;;;;;;;5128854;27;20039;-64
2022/05/22 10:30:55;;;;;;;6.45;2.20;;;;;;;;;;5128325;27;20042;-64
2022/05/22 10:33:35;;;;;;;4.32;2.00;;;;;;;;;;5129282;27;20480;-64
2022/05/22 10:36:09;;;;;;;10.25;1.90;;;;;;;;;;5129222;27;20396;-64
2022/05/22 10:38:37;;;;;;;7.53;1.83;;;;;;;;;;5128404;27;20023;-64
2022/05/22 10:44:04;;;;;;;6.88;1.85;;;;;;;;;;5129058;27;20043;-64
2022/05/22 10:46:30;;;;;;;9.00;2.00;;;;;;;;;;5128256;27;20039;-64
2022/05/22 10:48:56;;;;;;;4.38;1.60;;;;;;;;;;5127901;28;20047;-64
2022/05/22 10:51:24;;;;;;;8.52;2.05;;;;;;;;;;5129228;27;20484;-64
2022/05/22 10:53:55;;;;;;;6.18;1.40;;;;;;;;;;5128887;27;20039;-64
2022/05/22 10:56:26;;;;;;;3.17;1.30;;;;;;;;;;5127444;27;20530;-64
2022/05/22 10:58:58;;;;;;;5.45;1.60;;;;;;;;;;5128971;27;20078;-64
2022/05/22 11:01:25;;;;;;;6.70;1.70;;;;;;;;;;5129110;27;20377;-64
2022/05/22 11:04:08;;;;;;;6.93;2.25;;;;;;;;;;5124680;27;20648;-64
2022/05/22 11:06:36;;;;;;;5.88;1.63;;;;;;;;;;5114772;28;20049;-64
2022/05/22 11:09:03;;;;;;;5.15;1.48;;;;;;;;;;5115166;28;20044;-64
2022/05/22 11:11:33;;;;;;;6.07;1.23;;;;;;;;;;5113651;28;20392;-63
2022/05/22 11:14:06;;;;;;;4.75;1.48;;;;;;;;;;5114974;28;20123;-64
2022/05/22 11:16:32;;;;;;;7.57;1.70;;;;;;;;;;5113251;28;20488;-64
2022/05/22 11:19:21;;;;;;;3.75;1.20;;;;;;;;;;5114576;27;20035;-64
2022/05/22 11:21:58;;;;;;;3.47;1.23;;;;;;;;;;5107400;28;20180;-64
2022/05/22 11:24:30;;;;;;;6.07;1.50;;;;;;;;;;5114904;27;20092;-64
2022/05/22 11:27:00;;;;;;;4.22;1.40;;;;;;;;;;5114341;28;20120;-64
2022/05/22 11:29:29;;;;;;;4.50;1.45;;;;;;;;;;5113984;28;20040;-64
2022/05/22 11:32:22;;;;;;;4.32;1.60;;;;;;;;;;5113979;28;20039;-64
2022/05/22 11:35:02;;;;;;;7.55;1.63;;;;;;;;;;5112952;28;20039;-64
2022/05/22 11:37:38;;;;;;;6.88;1.50;;;;;;;;;;5114303;28;20115;-64
2022/05/22 11:40:04;;;;;;;6.13;1.67;;;;;;;;;;5113242;28;20051;-64
2022/05/22 11:42:37;;;;;;;5.05;1.67;;;;;;;;;;5113829;28;20035;-64
2022/05/22 11:45:03;;;;;;;3.65;1.30;;;;;;;;;;5114513;28;20043;-64
2022/05/22 11:47:45;;;;;;;5.57;1.45;;;;;;;;;;5113306;28;20454;-65
2022/05/22 11:50:11;;;;;;;6.82;1.50;;;;;;;;;;5106126;28;20042;-64
2022/05/22 11:52:56;;;;;;;3.60;1.48;;;;;;;;;;5112428;28;20374;-64
2022/05/22 11:55:27;;;;;;;5.22;1.48;;;;;;;;;;5113548;28;20032;-64
2022/05/22 11:57:53;;;;;;;;;;;;;;;;;;5114137;28;20050;-64
2022/05/22 12:00:23;;;;;;;5.85;1.50;;;;;;;;;;5114272;28;20002;-64
2022/05/22 12:03:08;;;;;;;4.07;1.33;;;;;;;;;;5114094;28;20043;-64
2022/05/22 12:05:43;;;;;;;5.65;1.50;;;;;;;;;;5109690;28;20092;-64
2022/05/22 12:08:33;;;;;;;7.72;1.42;;;;;;;;;;5113905;28;20437;-64
2022/05/22 12:11:19;;;;;;;5.05;1.48;;;;;;;;;;5094100;28;20044;-64
2022/05/22 12:13:49;;;;;;;4.03;1.20;;;;;;;;;;5112839;28;20093;-64
2022/05/22 12:16:22;;;;;;;4.70;1.63;;;;;;;;;;5112908;28;20027;-64
2022/05/22 12:19:01;;;;;;;5.63;1.60;;;;;;;;;;5107042;28;20044;-64
2022/05/22 12:21:35;;;;;;;6.22;1.55;;;;;;;;;;5109987;22;20072;-61
2022/05/22 12:24:05;;;;;;;5.97;1.70;;;;;;;;;;5084383;28;20193;-61
2022/05/22 12:26:31;;;;;;;5.88;1.50;;;;;;;;;;5092120;28;20576;-61
2022/05/22 12:29:00;;;;;;;5.68;1.30;;;;;;;;;;5092331;28;20060;-61
2022/05/22 12:31:29;;;;;;;7.97;1.35;;;;;;;;;;5092881;28;20040;-61
2022/05/22 12:33:57;;;;;;;5.18;1.70;;;;;;;;;;5093009;28;20046;-61
2022/05/22 12:36:25;;;;;;;6.35;1.50;;;;;;;;;;5086519;28;20033;-61
2022/05/22 12:38:56;;;;;;;4.10;1.38;;;;;;;;;;5080498;28;20036;-61
2022/05/22 12:41:30;;;;;;;8.35;1.50;;;;;;;;;;5072678;28;20059;-61
2022/05/22 12:43:57;;;;;;;4.97;1.42;;;;;;;;;;5073224;28;20044;-61
2022/05/22 12:46:24;;;;;;;4.97;1.38;;;;;;;;;;5092460;28;20047;-61
2022/05/22 12:48:51;;;;;;;5.00;1.58;;;;;;;;;;5092172;28;20123;-61
2022/05/22 12:51:22;;;;;;;7.47;1.77;;;;;;;;;;5092961;28;20052;-61
2022/05/22 12:53:49;;;;;;;6.07;1.75;;;;;;;;;;5083179;28;20045;-61
2022/05/22 12:56:20;;;;;;;4.32;1.38;;;;;;;;;;5081693;28;20044;-61
2022/05/22 12:58:47;;;;;;;;;;;;;;;;;;5074284;28;20100;-61
2022/05/22 13:01:23;;;;;;;7.20;1.67;;;;;;;;;;5087561;28;19998;-61
2022/05/22 13:03:50;;;;;;;5.53;2.00;;;;;;;;;;5089124;28;20044;-61
2022/05/22 13:06:21;;;;;;;5.32;1.70;;;;;;;;;;5092467;28;20094;-61
2022/05/22 13:09:01;;;;;;;5.88;1.73;;;;;;;;;;5073667;28;20055;-61
2022/05/22 13:11:38;;;;;;;8.23;1.75;;;;;;;;;;5085536;28;20519;-61
2022/05/22 13:14:04;;;;;;;4.95;1.70;;;;;;;;;;5091095;28;20540;-61
2022/05/22 13:16:44;;;;;;;6.55;1.67;;;;;;;;;;5091633;28;20036;-61
2022/05/22 13:19:18;;;;;;;6.30;1.73;;;;;;;;;;5073536;28;20039;-61
2022/05/22 13:21:44;;;;;;;5.25;1.55;;;;;;;;;;5083620;28;20092;-61
2022/05/22 13:24:16;;;;;;;3.20;1.45;;;;;;;;;;5091792;28;20123;-61
2022/05/22 13:26:42;;;;;;;4.85;1.50;;;;;;;;;;5092058;28;20401;-61
2022/05/22 13:29:14;;;;;;;5.32;1.73;;;;;;;;;;5082639;28;20528;-61
2022/05/22 13:31:45;;;;;;;4.28;1.40;;;;;;;;;;5092014;28;20435;-61
2022/05/22 13:34:23;;;;;;;9.10;2.15;;;;;;;;;;5091696;28;20516;-61
2022/05/22 13:37:00;;;;;;;8.38;2.20;;;;;;;;;;5072182;28;20397;-61
2022/05/22 13:39:52;;;;;;;5.78;1.83;;;;;;;;;;5086077;28;20043;-61
2022/05/22 13:42:36;;;;;;;9.63;2.53;;;;;;;;;;5061030;28;20044;-61
2022/05/22 13:45:06;;;;;;;7.78;1.75;;;;;;;;;;5072354;28;20222;-61
2022/05/22 13:47:41;;;;;;;5.22;1.70;;;;;;;;;;5091115;28;20113;-61
2022/05/22 13:53:02;;;;;;;8.02;2.00;;;;;;;;;;5091714;28;20052;-61
2022/05/22 13:55:28;;;;;;;5.72;1.90;;;;;;;;;;5090848;28;20036;-61
2022/05/22 13:58:05;;;;;;;4.75;1.50;;;;;;;;;;5091485;28;20036;-61
2022/05/22 14:00:40;;;;;;;5.82;1.92;;;;;;;;;;5091700;28;20039;-61
2022/05/22 14:03:18;;;;;;;7.22;1.60;;;;;;;;;;5087742;28;20438;-62
2022/05/22 14:05:45;;;;;;;6.03;1.83;;;;;;;;;;5087121;28;20067;-61
2022/05/22 14:08:22;;;;;;;5.18;1.67;;;;;;;;;;5091188;28;20115;-61
2022/05/22 14:10:56;;;;;;;5.75;1.55;;;;;;;;;;5090310;28;20035;-62
2022/05/22 14:13:24;;;;;;;5.13;1.52;;;;;;;;;;5084815;28;20512;-61
2022/05/22 14:15:57;;;;;;;3.60;1.48;;;;;;;;;;5090680;28;20036;-61
2022/05/22 14:18:26;;;;;;;7.85;2.08;;;;;;;;;;5091516;28;20040;-61
2022/05/22 14:20:54;;;;;;;3.97;1.52;;;;;;;;;;5090298;28;20047;-61
2022/05/22 14:23:27;;;;;;;5.38;1.40;;;;;;;;;;5075252;28;20044;-61
2022/05/22 14:25:55;;;;;;;3.55;1.27;;;;;;;;;;5091471;28;20040;-61
2022/05/22 14:28:45;;;;;;;6.32;1.60;;;;;;;;;;5091682;28;20501;-61
2022/05/22 14:31:13;;;;;;;4.35;1.48;;;;;;;;;;5057987;28;20537;-61
2022/05/22 14:33:39;;;;;;;4.22;1.67;;;;;;;;;;5091458;28;20051;-61
2022/05/22 14:36:09;;;;;;;4.43;1.60;;;;;;;;;;5073158;28;20039;-61
2022/05/22 14:38:39;;;;;;;6.05;1.42;;;;;;;;;;5090754;28;20040;-61
2022/05/22 14:41:11;;;;;;;9.38;1.73;;;;;;;;;;5083571;28;20032;-62
2022/05/22 14:44:00;;;;;;;3.90;1.60;;;;;;;;;;5095062;28;20058;-61
2022/05/22 14:46:32;;;;;;;5.53;1.60;;;;;;;;;;5086536;28;20052;-61
2022/05/22 14:49:01;;;;;;;4.07;1.60;;;;;;;;;;5061790;28;20131;-61
2022/05/22 14:51:32;;;;;;;4.82;1.48;;;;;;;;;;5094852;28;20032;-61
2022/05/22 14:54:17;;;;;;;4.93;1.60;;;;;;;;;;5094703;28;20131;-61
2022/05/22 14:56:46;;;;;;;5.93;1.55;;;;;;;;;;5076192;28;20040;-61
2022/05/22 14:59:14;;;;;;;4.55;1.60;;;;;;;;;;5087019;28;20085;-61
2022/05/22 15:01:43;;;;;;;5.35;1.52;;;;;;;;;;5094844;28;20040;-61
2022/05/22 15:04:12;;;;;;;3.63;1.08;;;;;;;;;;5094128;28;20044;-61
2022/05/22 15:06:49;;;;;;;5.63;1.52;;;;;;;;;;5093649;28;20051;-61
2022/05/22 15:09:26;;;;;;;3.53;1.35;;;;;;;;;;5074332;28;20043;-61
2022/05/22 15:11:52;;;;;;;6.25;1.52;;;;;;;;;;5074007;28;20516;-61
2022/05/22 15:14:29;;;;;;;5.55;1.67;;;;;;;;;;5081610;28;20036;-61
2022/05/22 15:16:57;;;;;;;5.97;1.50;;;;;;;;;;5084924;28;20410;-61
2022/05/22 15:25:27;;;;;;;4.95;1.50;;;;;;;;;;5081851;28;20072;-61
2022/05/22 15:28:19;;;;;;;4.25;1.27;;;;;;;;;;5092012;28;20558;-61